Eau Claire, Michigan
Current Conditions -  °F | °C
As of 8:18 PM on Thursday 27 Nov 2014 (Local Time) from KBEH Reporting Station
Overcast Overcast  
Wind Chill: 16°   Ceiling: 3300
Heat Index: 25°   Visibility: 10mi
Dew Point: 14°   Wind: 8mph
Humidity: 63%   Direction: 320°NW
Pressure: 30.35"   Gusts: 17mph
Location:  41.99°N, 86.3°W
Report Text: KBEH 280118Z AUTO 32007G15KT 290V350 10SM OVC033 M04/M10 A3035 RMK AO2 SNE0059 P0000 T10391100
Loading
Personal Weather Stations






























Interactive Weather Map New forecast layout! Learn more

10-Day Weather Forecast

Advertisements
Track Severe Weather on mobile